sensor_id;sensor_type;location;lat;lon;timestamp;pressure;altitude;pressure_sealevel;temperature;humidity
16821;BME280;8527;49.740;6.604;2023-03-14T00:01:57;97748.84;;;10.26;94.21
16821;BME280;8527;49.740;6.604;2023-03-14T00:06:56;97750.69;;;10.26;93.97
16821;BME280;8527;49.740;6.604;2023-03-14T00:12:01;97764.16;;;10.24;93.39
16821;BME280;8527;49.740;6.604;2023-03-14T00:16:59;97744.34;;;10.27;93.85
16821;BME280;8527;49.740;6.604;2023-03-14T00:21:58;97736.69;;;10.19;95.19
16821;BME280;8527;49.740;6.604;2023-03-14T00:27:04;97722.59;;;10.18;95.88
16821;BME280;8527;49.740;6.604;2023-03-14T00:32:03;97749.75;;;10.13;96.47
16821;BME280;8527;49.740;6.604;2023-03-14T00:37:01;97732.34;;;9.99;99.61
16821;BME280;8527;49.740;6.604;2023-03-14T00:42:03;97737.84;;;9.97;99.92
16821;BME280;8527;49.740;6.604;2023-03-14T00:47:01;97739.88;;;9.95;100.00
16821;BME280;8527;49.740;6.604;2023-03-14T00:52:00;97733.56;;;9.96;100.00
16821;BME280;8527;49.740;6.604;2023-03-14T00:57:00;97727.91;;;9.93;100.00
16821;BME280;8527;49.740;6.604;2023-03-14T01:02:04;97720.38;;;9.90;99.87
16821;BME280;8527;49.740;6.604;2023-03-14T01:07:03;97738.72;;;9.91;99.42
16821;BME280;8527;49.740;6.604;2023-03-14T01:12:04;97737.09;;;9.90;99.42
16821;BME280;8527;49.740;6.604;2023-03-14T01:17:04;97738.91;;;9.90;98.72
16821;BME280;8527;49.740;6.604;2023-03-14T01:22:03;97753.19;;;9.89;98.80
16821;BME280;8527;49.740;6.604;2023-03-14T01:27:02;97760.88;;;9.97;97.97
16821;BME280;8527;49.740;6.604;2023-03-14T01:32:03;97748.47;;;9.91;98.09
16821;BME280;8527;49.740;6.604;2023-03-14T01:37:11;97741.78;;;9.88;97.58
16821;BME280;8527;49.740;6.604;2023-03-14T01:42:13;97737.69;;;9.92;97.17
16821;BME280;8527;49.740;6.604;2023-03-14T01:47:11;97728.16;;;9.84;96.75
16821;BME280;8527;49.740;6.604;2023-03-14T01:52:14;97747.50;;;9.85;97.46
16821;BME280;8527;49.740;6.604;2023-03-14T01:57:17;97726.50;;;9.90;97.02
16821;BME280;8527;49.740;6.604;2023-03-14T02:02:21;97719.97;;;9.93;96.91
16821;BME280;8527;49.740;6.604;2023-03-14T02:07:27;97721.44;;;9.82;97.96
16821;BME280;8527;49.740;6.604;2023-03-14T02:12:28;97704.41;;;9.71;100.00
16821;BME280;8527;49.740;6.604;2023-03-14T02:17:27;97690.84;;;9.61;100.00
16821;BME280;8527;49.740;6.604;2023-03-14T02:22:28;97676.63;;;9.55;100.00
16821;BME280;8527;49.740;6.604;2023-03-14T02:27:31;97684.75;;;9.53;100.00
16821;BME280;8527;49.740;6.604;2023-03-14T02:32:33;97676.81;;;9.53;100.00
16821;BME280;8527;49.740;6.604;2023-03-14T02:37:38;97670.13;;;9.51;100.00
16821;BME280;8527;49.740;6.604;2023-03-14T02:42:47;97665.22;;;9.54;100.00
16821;BME280;8527;49.740;6.604;2023-03-14T02:47:48;97662.78;;;9.53;100.00
16821;BME280;8527;49.740;6.604;2023-03-14T02:52:48;97652.84;;;9.48;100.00
16821;BME280;8527;49.740;6.604;2023-03-14T02:57:50;97655.53;;;9.41;100.00
16821;BME280;8527;49.740;6.604;2023-03-14T03:02:53;97654.38;;;9.31;100.00
16821;BME280;8527;49.740;6.604;2023-03-14T03:08:07;97648.09;;;9.25;100.00
16821;BME280;8527;49.740;6.604;2023-03-14T03:13:08;97642.38;;;9.28;100.00
16821;BME280;8527;49.740;6.604;2023-03-14T03:18:11;97624.69;;;9.22;100.00
16821;BME280;8527;49.740;6.604;2023-03-14T03:23:11;97610.66;;;9.21;100.00
16821;BME280;8527;49.740;6.604;2023-03-14T03:28:12;97608.03;;;9.21;100.00
16821;BME280;8527;49.740;6.604;2023-03-14T03:33:16;97603.91;;;9.25;100.00
16821;BME280;8527;49.740;6.604;2023-03-14T03:38:15;97596.41;;;9.22;100.00
16821;BME280;8527;49.740;6.604;2023-03-14T03:43:18;97605.81;;;9.18;100.00
16821;BME280;8527;49.740;6.604;2023-03-14T03:48:23;97594.44;;;9.11;100.00
16821;BME280;8527;49.740;6.604;2023-03-14T03:53:22;97598.75;;;9.05;100.00
16821;BME280;8527;49.740;6.604;2023-03-14T03:58:26;97598.59;;;9.00;100.00
16821;BME280;8527;49.740;6.604;2023-03-14T04:03:24;97599.59;;;8.99;100.00
16821;BME280;8527;49.740;6.604;2023-03-14T04:08:23;97597.59;;;8.94;100.00
16821;BME280;8527;49.740;6.604;2023-03-14T04:13:22;97594.72;;;8.96;100.00
16821;BME280;8527;49.740;6.604;2023-03-14T04:18:32;97597.00;;;8.92;100.00
16821;BME280;8527;49.740;6.604;2023-03-14T04:23:33;97591.47;;;8.94;100.00
16821;BME280;8527;49.740;6.604;2023-03-14T04:28:32;97598.41;;;8.95;100.00
16821;BME280;8527;49.740;6.604;2023-03-14T04:33:40;97593.53;;;8.92;100.00
16821;BME280;8527;49.740;6.604;2023-03-14T04:38:50;97592.53;;;8.86;100.00
16821;BME280;8527;49.740;6.604;2023-03-14T04:43:48;97584.22;;;8.82;100.00
16821;BME280;8527;49.740;6.604;2023-03-14T04:48:50;97571.00;;;8.82;100.00
16821;BME280;8527;49.740;6.604;2023-03-14T04:53:55;97559.59;;;8.89;100.00
16821;BME280;8527;49.740;6.604;2023-03-14T04:58:59;97546.19;;;8.83;100.00
16821;BME280;8527;49.740;6.604;2023-03-14T05:04:06;97538.03;;;8.85;100.00
16821;BME280;8527;49.740;6.604;2023-03-14T05:09:16;97547.59;;;8.86;100.00
16821;BME280;8527;49.740;6.604;2023-03-14T05:14:25;97539.47;;;8.88;100.00
16821;BME280;8527;49.740;6.604;2023-03-14T05:19:26;97527.91;;;8.82;100.00
16821;BME280;8527;49.740;6.604;2023-03-14T05:24:24;97525.25;;;8.82;100.00
16821;BME280;8527;49.740;6.604;2023-03-14T05:29:23;97522.66;;;8.75;100.00
16821;BME280;8527;49.740;6.604;2023-03-14T05:34:22;97513.91;;;8.75;100.00
16821;BME280;8527;49.740;6.604;2023-03-14T05:39:25;97509.63;;;8.73;100.00
16821;BME280;8527;49.740;6.604;2023-03-14T05:44:24;97513.09;;;8.74;100.00
16821;BME280;8527;49.740;6.604;2023-03-14T05:49:22;97507.81;;;8.74;100.00
16821;BME280;8527;49.740;6.604;2023-03-14T05:54:21;97498.25;;;8.73;100.00
16821;BME280;8527;49.740;6.604;2023-03-14T05:59:28;97493.19;;;8.71;100.00
16821;BME280;8527;49.740;6.604;2023-03-14T06:04:27;97496.84;;;8.70;100.00
16821;BME280;8527;49.740;6.604;2023-03-14T06:09:31;97488.69;;;8.72;100.00
16821;BME280;8527;49.740;6.604;2023-03-14T06:14:34;97497.25;;;8.74;100.00
16821;BME280;8527;49.740;6.604;2023-03-14T06:19:33;97484.38;;;8.78;100.00
16821;BME280;8527;49.740;6.604;2023-03-14T06:24:35;97481.16;;;8.76;100.00
16821;BME280;8527;49.740;6.604;2023-03-14T06:29:36;97486.03;;;8.79;100.00
16821;BME280;8527;49.740;6.604;2023-03-14T06:34:34;97482.56;;;8.78;100.00
16821;BME280;8527;49.740;6.604;2023-03-14T06:39:33;97480.75;;;8.79;100.00
16821;BME280;8527;49.740;6.604;2023-03-14T06:44:36;97473.41;;;8.81;100.00
16821;BME280;8527;49.740;6.604;2023-03-14T06:49:34;97486.38;;;8.82;100.00
16821;BME280;8527;49.740;6.604;2023-03-14T06:54:40;97492.28;;;8.84;100.00
16821;BME280;8527;49.740;6.604;2023-03-14T06:59:47;97494.72;;;8.86;100.00
16821;BME280;8527;49.740;6.604;2023-03-14T07:04:46;97505.88;;;8.88;100.00
16821;BME280;8527;49.740;6.604;2023-03-14T07:09:45;97497.09;;;8.94;100.00
16821;BME280;8527;49.740;6.604;2023-03-14T07:14:48;97505.63;;;8.96;100.00
16821;BME280;8527;49.740;6.604;2023-03-14T07:19:46;97502.75;;;9.05;100.00
16821;BME280;8527;49.740;6.604;2023-03-14T07:24:44;97518.41;;;8.99;100.00
16821;BME280;8527;49.740;6.604;2023-03-14T07:29:47;97523.84;;;9.11;100.00
16821;BME280;8527;49.740;6.604;2023-03-14T07:34:54;97522.97;;;9.18;100.00
16821;BME280;8527;49.740;6.604;2023-03-14T07:39:52;97522.72;;;9.26;100.00
16821;BME280;8527;49.740;6.604;2023-03-14T07:44:50;97522.72;;;9.26;100.00
16821;BME280;8527;49.740;6.604;2023-03-14T07:49:57;97527.47;;;9.42;100.00
16821;BME280;8527;49.740;6.604;2023-03-14T07:54:56;97526.06;;;9.40;100.00
16821;BME280;8527;49.740;6.604;2023-03-14T08:00:00;97530.56;;;9.39;100.00
16821;BME280;8527;49.740;6.604;2023-03-14T08:05:06;97521.72;;;9.46;100.00
16821;BME280;8527;49.740;6.604;2023-03-14T08:10:07;97524.13;;;9.54;100.00
16821;BME280;8527;49.740;6.604;2023-03-14T08:15:06;97515.66;;;9.64;100.00
16821;BME280;8527;49.740;6.604;2023-03-14T08:20:09;97517.00;;;9.73;100.00
16821;BME280;8527;49.740;6.604;2023-03-14T08:25:08;97520.47;;;9.74;100.00
16821;BME280;8527;49.740;6.604;2023-03-14T08:30:10;97525.03;;;9.85;100.00
16821;BME280;8527;49.740;6.604;2023-03-14T08:35:15;97519.00;;;9.78;100.00
16821;BME280;8527;49.740;6.604;2023-03-14T08:40:13;97514.81;;;9.70;100.00
16821;BME280;8527;49.740;6.604;2023-03-14T08:45:15;97513.78;;;9.71;100.00
16821;BME280;8527;49.740;6.604;2023-03-14T08:50:19;97518.56;;;9.81;100.00
16821;BME280;8527;49.740;6.604;2023-03-14T08:55:18;97511.00;;;9.84;100.00
16821;BME280;8527;49.740;6.604;2023-03-14T09:00:18;97526.50;;;9.81;100.00
16821;BME280;8527;49.740;6.604;2023-03-14T09:05:19;97532.00;;;9.79;100.00
16821;BME280;8527;49.740;6.604;2023-03-14T09:10:20;97548.94;;;9.78;100.00
16821;BME280;8527;49.740;6.604;2023-03-14T09:15:18;97547.97;;;9.73;100.00
16821;BME280;8527;49.740;6.604;2023-03-14T09:20:22;97554.41;;;9.83;100.00
16821;BME280;8527;49.740;6.604;2023-03-14T09:25:20;97558.97;;;9.95;100.00
16821;BME280;8527;49.740;6.604;2023-03-14T09:30:22;97566.75;;;9.90;100.00
16821;BME280;8527;49.740;6.604;2023-03-14T09:35:23;97566.47;;;9.98;100.00
16821;BME280;8527;49.740;6.604;2023-03-14T09:40:22;97577.00;;;10.05;100.00
16821;BME280;8527;49.740;6.604;2023-03-14T09:45:26;97604.09;;;10.07;100.00
16821;BME280;8527;49.740;6.604;2023-03-14T09:50:38;97641.34;;;10.12;100.00
16821;BME280;8527;49.740;6.604;2023-03-14T09:55:38;97654.41;;;10.32;100.00
16821;BME280;8527;49.740;6.604;2023-03-14T10:00:37;97707.97;;;10.41;99.40
16821;BME280;8527;49.740;6.604;2023-03-14T10:05:42;97722.59;;;10.18;93.80
16821;BME280;8527;49.740;6.604;2023-03-14T10:10:43;97772.31;;;9.91;92.33
16821;BME280;8527;49.740;6.604;2023-03-14T10:15:47;97805.94;;;9.90;91.38
16821;BME280;8527;49.740;6.604;2023-03-14T10:20:49;97830.28;;;9.74;87.67
16821;BME280;8527;49.740;6.604;2023-03-14T10:26:12;97870.34;;;9.32;87.25
16821;BME280;8527;49.740;6.604;2023-03-14T10:31:11;97886.63;;;9.15;87.12
16821;BME280;8527;49.740;6.604;2023-03-14T10:36:23;97886.03;;;8.99;85.72
16821;BME280;8527;49.740;6.604;2023-03-14T10:41:25;97914.31;;;9.26;85.57
16821;BME280;8527;49.740;6.604;2023-03-14T10:46:26;97928.47;;;9.72;84.78
16821;BME280;8527;49.740;6.604;2023-03-14T10:51:33;97946.88;;;10.06;84.81
16821;BME280;8527;49.740;6.604;2023-03-14T10:56:38;97969.38;;;9.76;82.63
16821;BME280;8527;49.740;6.604;2023-03-14T11:01:42;98000.53;;;9.81;84.37
16821;BME280;8527;49.740;6.604;2023-03-14T11:06:49;98010.56;;;9.65;85.41
16821;BME280;8527;49.740;6.604;2023-03-14T11:11:49;98046.41;;;9.41;86.04
16821;BME280;8527;49.740;6.604;2023-03-14T11:16:54;98073.41;;;9.03;88.31
16821;BME280;8527;49.740;6.604;2023-03-14T11:22:00;98085.63;;;9.04;90.15
16821;BME280;8527;49.740;6.604;2023-03-14T11:27:13;98117.16;;;8.92;89.83
16821;BME280;8527;49.740;6.604;2023-03-14T11:32:32;98116.56;;;9.03;87.34
16821;BME280;8527;49.740;6.604;2023-03-14T11:37:44;98134.16;;;9.45;84.25
16821;BME280;8527;49.740;6.604;2023-03-14T11:42:47;98169.75;;;9.28;82.97
16821;BME280;8527;49.740;6.604;2023-03-14T11:47:50;98183.19;;;9.20;83.53
16821;BME280;8527;49.740;6.604;2023-03-14T11:52:58;98214.19;;;8.91;83.09
16821;BME280;8527;49.740;6.604;2023-03-14T11:58:00;98221.06;;;8.79;81.98
16821;BME280;8527;49.740;6.604;2023-03-14T12:03:02;98234.56;;;8.97;80.75
16821;BME280;8527;49.740;6.604;2023-03-14T12:08:22;98250.13;;;9.21;79.48
16821;BME280;8527;49.740;6.604;2023-03-14T12:13:28;98258.84;;;9.70;79.37
16821;BME280;8527;49.740;6.604;2023-03-14T12:18:31;98287.06;;;9.42;80.25
16821;BME280;8527;49.740;6.604;2023-03-14T12:23:42;98291.41;;;9.64;75.50
16821;BME280;8527;49.740;6.604;2023-03-14T12:28:43;98312.91;;;9.96;74.87
16821;BME280;8527;49.740;6.604;2023-03-14T12:33:45;98299.69;;;10.09;68.63
16821;BME280;8527;49.740;6.604;2023-03-14T12:39:00;98313.38;;;10.20;61.99
16821;BME280;8527;49.740;6.604;2023-03-14T12:49:35;98337.22;;;10.13;62.17
16821;BME280;8527;49.740;6.604;2023-03-14T12:54:41;98353.88;;;10.07;63.07
16821;BME280;8527;49.740;6.604;2023-03-14T12:59:52;98350.06;;;10.23;59.90
16821;BME280;8527;49.740;6.604;2023-03-14T13:05:01;98372.78;;;10.52;62.08
16821;BME280;8527;49.740;6.604;2023-03-14T13:10:04;98384.84;;;9.93;60.39
16821;BME280;8527;49.740;6.604;2023-03-14T13:15:14;98390.31;;;9.91;59.41
16821;BME280;8527;49.740;6.604;2023-03-14T13:20:22;98400.91;;;9.84;59.38
16821;BME280;8527;49.740;6.604;2023-03-14T13:25:24;98423.69;;;9.79;60.58
16821;BME280;8527;49.740;6.604;2023-03-14T13:30:38;98420.38;;;9.63;60.28
16821;BME280;8527;49.740;6.604;2023-03-14T13:35:42;98420.81;;;9.74;59.97
16821;BME280;8527;49.740;6.604;2023-03-14T13:40:47;98426.03;;;10.02;59.78
16821;BME280;8527;49.740;6.604;2023-03-14T13:45:48;98424.19;;;9.96;59.71
16821;BME280;8527;49.740;6.604;2023-03-14T13:50:53;98433.66;;;10.25;58.49
16821;BME280;8527;49.740;6.604;2023-03-14T13:56:01;98431.78;;;10.19;57.00
16821;BME280;8527;49.740;6.604;2023-03-14T14:01:15;98441.41;;;10.34;58.03
16821;BME280;8527;49.740;6.604;2023-03-14T14:06:30;98431.19;;;10.24;56.85
16821;BME280;8527;49.740;6.604;2023-03-14T14:11:42;98440.94;;;10.17;55.73
16821;BME280;8527;49.740;6.604;2023-03-14T14:16:41;98450.78;;;10.30;55.02
16821;BME280;8527;49.740;6.604;2023-03-14T14:21:51;98459.38;;;10.38;55.13
16821;BME280;8527;49.740;6.604;2023-03-14T14:26:57;98451.19;;;10.26;54.77
16821;BME280;8527;49.740;6.604;2023-03-14T14:32:01;98471.63;;;10.39;56.60
16821;BME280;8527;49.740;6.604;2023-03-14T14:36:59;98477.38;;;10.43;56.07
16821;BME280;8527;49.740;6.604;2023-03-14T14:42:03;98468.16;;;10.39;54.49
16821;BME280;8527;49.740;6.604;2023-03-14T14:47:03;98477.56;;;10.41;54.89
16821;BME280;8527;49.740;6.604;2023-03-14T14:52:04;98475.66;;;10.28;52.57
16821;BME280;8527;49.740;6.604;2023-03-14T14:57:18;98483.66;;;10.35;54.38
16821;BME280;8527;49.740;6.604;2023-03-14T15:02:30;98488.69;;;10.23;52.17
16821;BME280;8527;49.740;6.604;2023-03-14T15:07:30;98510.31;;;10.27;52.40
16821;BME280;8527;49.740;6.604;2023-03-14T15:12:31;98516.03;;;10.31;52.19
16821;BME280;8527;49.740;6.604;2023-03-14T15:17:31;98541.03;;;10.14;52.16
16821;BME280;8527;49.740;6.604;2023-03-14T15:22:32;98552.84;;;10.05;52.57
16821;BME280;8527;49.740;6.604;2023-03-14T15:27:33;98569.84;;;9.89;53.07
16821;BME280;8527;49.740;6.604;2023-03-14T15:32:31;98583.06;;;9.61;55.16
16821;BME280;8527;49.740;6.604;2023-03-14T15:37:30;98596.38;;;9.46;57.34
16821;BME280;8527;49.740;6.604;2023-03-14T15:42:28;98605.16;;;9.24;59.89
16821;BME280;8527;49.740;6.604;2023-03-14T15:47:29;98610.47;;;9.09;61.90
16821;BME280;8527;49.740;6.604;2023-03-14T15:52:28;98620.34;;;9.37;62.13
16821;BME280;8527;49.740;6.604;2023-03-14T15:57:26;98621.97;;;9.17;62.87
16821;BME280;8527;49.740;6.604;2023-03-14T16:02:25;98625.78;;;8.92;63.91
16821;BME280;8527;49.740;6.604;2023-03-14T16:07:28;98645.41;;;8.83;63.65
16821;BME280;8527;49.740;6.604;2023-03-14T16:12:28;98652.06;;;8.64;63.83
16821;BME280;8527;49.740;6.604;2023-03-14T16:17:27;98663.19;;;8.59;62.89
16821;BME280;8527;49.740;6.604;2023-03-14T16:22:30;98671.03;;;8.52;62.90
16821;BME280;8527;49.740;6.604;2023-03-14T16:27:32;98689.25;;;8.47;63.94
16821;BME280;8527;49.740;6.604;2023-03-14T16:32:33;98694.97;;;8.36;65.42
16821;BME280;8527;49.740;6.604;2023-03-14T16:37:34;98701.06;;;8.36;65.54
16821;BME280;8527;49.740;6.604;2023-03-14T16:42:33;98705.41;;;8.14;67.63
16821;BME280;8527;49.740;6.604;2023-03-14T16:47:31;98707.16;;;8.22;68.46
16821;BME280;8527;49.740;6.604;2023-03-14T16:52:29;98715.25;;;8.20;68.12
16821;BME280;8527;49.740;6.604;2023-03-14T16:57:31;98720.91;;;8.17;68.76
16821;BME280;8527;49.740;6.604;2023-03-14T17:02:29;98735.19;;;7.84;70.12
16821;BME280;8527;49.740;6.604;2023-03-14T17:07:28;98740.41;;;7.93;70.22
16821;BME280;8527;49.740;6.604;2023-03-14T17:12:26;98746.38;;;7.63;70.90
16821;BME280;8527;49.740;6.604;2023-03-14T17:17:27;98757.84;;;7.47;71.14
16821;BME280;8527;49.740;6.604;2023-03-14T17:22:26;98775.81;;;7.52;71.33
16821;BME280;8527;49.740;6.604;2023-03-14T17:27:24;98819.31;;;7.56;72.64
16821;BME280;8527;49.740;6.604;2023-03-14T17:32:23;98847.66;;;7.14;77.74
16821;BME280;8527;49.740;6.604;2023-03-14T17:37:24;98878.03;;;6.85;80.74
16821;BME280;8527;49.740;6.604;2023-03-14T17:42:23;98918.25;;;5.94;84.13
16821;BME280;8527;49.740;6.604;2023-03-14T17:47:24;98944.09;;;5.11;89.82
16821;BME280;8527;49.740;6.604;2023-03-14T17:52:25;98951.72;;;4.96;88.92
16821;BME280;8527;49.740;6.604;2023-03-14T17:57:26;98989.19;;;4.80;89.21
16821;BME280;8527;49.740;6.604;2023-03-14T18:02:28;99003.91;;;4.73;88.41
16821;BME280;8527;49.740;6.604;2023-03-14T18:07:34;99022.31;;;4.73;89.32
16821;BME280;8527;49.740;6.604;2023-03-14T18:12:33;99037.94;;;4.74;85.78
16821;BME280;8527;49.740;6.604;2023-03-14T18:17:31;99047.44;;;4.57;87.11
16821;BME280;8527;49.740;6.604;2023-03-14T18:22:30;99060.28;;;4.32;89.04
16821;BME280;8527;49.740;6.604;2023-03-14T18:27:32;99085.13;;;4.66;87.78
16821;BME280;8527;49.740;6.604;2023-03-14T18:32:30;99095.44;;;4.77;87.26
16821;BME280;8527;49.740;6.604;2023-03-14T18:37:31;99109.41;;;4.50;90.00
16821;BME280;8527;49.740;6.604;2023-03-14T18:42:33;99124.56;;;4.18;92.75
16821;BME280;8527;49.740;6.604;2023-03-14T18:47:33;99136.56;;;4.31;92.61
16821;BME280;8527;49.740;6.604;2023-03-14T18:52:32;99155.81;;;4.59;89.20
16821;BME280;8527;49.740;6.604;2023-03-14T18:57:34;99162.19;;;4.57;88.66
16821;BME280;8527;49.740;6.604;2023-03-14T19:02:33;99164.63;;;4.30;91.49
16821;BME280;8527;49.740;6.604;2023-03-14T19:07:32;99173.63;;;4.08;94.63
16821;BME280;8527;49.740;6.604;2023-03-14T19:12:30;99177.53;;;4.04;94.49
16821;BME280;8527;49.740;6.604;2023-03-14T19:17:33;99179.56;;;4.10;92.92
16821;BME280;8527;49.740;6.604;2023-03-14T19:22:35;99159.41;;;4.11;92.74
16821;BME280;8527;49.740;6.604;2023-03-14T19:27:36;99158.84;;;4.27;92.02
16821;BME280;8527;49.740;6.604;2023-03-14T19:32:37;99165.19;;;4.24;91.79
16821;BME280;8527;49.740;6.604;2023-03-14T19:37:39;99173.47;;;4.19;93.16
16821;BME280;8527;49.740;6.604;2023-03-14T19:42:46;99171.03;;;4.18;92.45
16821;BME280;8527;49.740;6.604;2023-03-14T19:47:48;99174.75;;;4.15;94.79
16821;BME280;8527;49.740;6.604;2023-03-14T19:52:47;99191.06;;;4.19;94.32
16821;BME280;8527;49.740;6.604;2023-03-14T19:57:48;99228.06;;;4.16;92.98
16821;BME280;8527;49.740;6.604;2023-03-14T20:02:51;99229.19;;;4.13;94.19
16821;BME280;8527;49.740;6.604;2023-03-14T20:07:51;99237.59;;;4.07;93.28
16821;BME280;8527;49.740;6.604;2023-03-14T20:12:50;99254.63;;;3.93;94.38
16821;BME280;8527;49.740;6.604;2023-03-14T20:17:54;99276.16;;;3.97;93.80
16821;BME280;8527;49.740;6.604;2023-03-14T20:22:55;99301.13;;;3.91;94.35
16821;BME280;8527;49.740;6.604;2023-03-14T20:27:54;99317.16;;;3.78;95.10
16821;BME280;8527;49.740;6.604;2023-03-14T20:32:55;99317.69;;;3.72;96.86
16821;BME280;8527;49.740;6.604;2023-03-14T20:37:54;99328.34;;;3.80;94.12
16821;BME280;8527;49.740;6.604;2023-03-14T20:42:53;99347.00;;;3.87;93.40
16821;BME280;8527;49.740;6.604;2023-03-14T20:47:51;99348.91;;;3.75;96.33
16821;BME280;8527;49.740;6.604;2023-03-14T20:52:53;99356.91;;;3.73;95.13
16821;BME280;8527;49.740;6.604;2023-03-14T20:57:51;99361.88;;;3.66;95.15
16821;BME280;8527;49.740;6.604;2023-03-14T21:02:52;99371.22;;;3.59;95.22
16821;BME280;8527;49.740;6.604;2023-03-14T21:07:53;99375.31;;;3.42;96.26
16821;BME280;8527;49.740;6.604;2023-03-14T21:12:52;99377.56;;;3.26;96.46
16821;BME280;8527;49.740;6.604;2023-03-14T21:17:50;99384.47;;;3.27;95.43
16821;BME280;8527;49.740;6.604;2023-03-14T21:22:52;99399.47;;;3.15;96.53
16821;BME280;8527;49.740;6.604;2023-03-14T21:27:53;99405.47;;;3.05;96.43
16821;BME280;8527;49.740;6.604;2023-03-14T21:32:51;99409.09;;;2.93;96.01
16821;BME280;8527;49.740;6.604;2023-03-14T21:37:55;99419.53;;;2.83;96.98
16821;BME280;8527;49.740;6.604;2023-03-14T21:42:57;99437.06;;;2.71;96.33
16821;BME280;8527;49.740;6.604;2023-03-14T21:47:57;99434.97;;;2.65;96.25
16821;BME280;8527;49.740;6.604;2023-03-14T21:52:59;99444.84;;;2.61;96.54
16821;BME280;8527;49.740;6.604;2023-03-14T21:57:57;99456.47;;;2.47;95.68
16821;BME280;8527;49.740;6.604;2023-03-14T22:02:56;99460.50;;;2.40;95.55
16821;BME280;8527;49.740;6.604;2023-03-14T22:07:55;99472.19;;;2.36;94.67
16821;BME280;8527;49.740;6.604;2023-03-14T22:12:56;99479.94;;;2.26;95.74
16821;BME280;8527;49.740;6.604;2023-03-14T22:17:54;99484.59;;;2.11;96.11
16821;BME280;8527;49.740;6.604;2023-03-14T22:22:52;99504.09;;;2.18;94.82
16821;BME280;8527;49.740;6.604;2023-03-14T22:27:51;99507.44;;;2.09;95.07
16821;BME280;8527;49.740;6.604;2023-03-14T22:32:52;99506.97;;;2.04;95.81
16821;BME280;8527;49.740;6.604;2023-03-14T22:37:51;99525.41;;;1.79;96.74
16821;BME280;8527;49.740;6.604;2023-03-14T22:42:50;99524.78;;;1.64;97.52
16821;BME280;8527;49.740;6.604;2023-03-14T22:47:51;99529.53;;;1.71;96.54
16821;BME280;8527;49.740;6.604;2023-03-14T22:52:50;99526.78;;;1.61;97.23
16821;BME280;8527;49.740;6.604;2023-03-14T22:57:50;99536.41;;;1.60;95.68
16821;BME280;8527;49.740;6.604;2023-03-14T23:02:56;99541.28;;;1.53;95.89
16821;BME280;8527;49.740;6.604;2023-03-14T23:07:54;99548.84;;;1.45;96.23
16821;BME280;8527;49.740;6.604;2023-03-14T23:12:53;99562.38;;;1.39;95.12
16821;BME280;8527;49.740;6.604;2023-03-14T23:17:55;99576.13;;;1.30;95.61
16821;BME280;8527;49.740;6.604;2023-03-14T23:22:56;99575.19;;;1.31;94.20
16821;BME280;8527;49.740;6.604;2023-03-14T23:27:54;99577.66;;;1.32;94.06
16821;BME280;8527;49.740;6.604;2023-03-14T23:32:55;99596.34;;;1.28;94.12
16821;BME280;8527;49.740;6.604;2023-03-14T23:37:57;99610.50;;;1.12;94.82
16821;BME280;8527;49.740;6.604;2023-03-14T23:42:55;99613.88;;;1.01;96.02
16821;BME280;8527;49.740;6.604;2023-03-14T23:47:59;99618.38;;;0.99;96.61
16821;BME280;8527;49.740;6.604;2023-03-14T23:52:57;99607.22;;;0.97;94.98
16821;BME280;8527;49.740;6.604;2023-03-14T23:57:57;99602.75;;;0.86;96.55
